createdAt,value
2022-11-20T00:00:24.721Z,5.22
2022-11-20T00:05:27.382Z,5.30
2022-11-20T00:10:30.088Z,5.20
2022-11-20T00:15:34.365Z,5.63
2022-11-20T00:20:37.050Z,5.50
2022-11-20T00:25:39.777Z,5.10
2022-11-20T00:30:43.827Z,5.18
2022-11-20T00:35:46.552Z,5.18
2022-11-20T00:40:57.108Z,5.15
2022-11-20T00:46:01.499Z,5.00
2022-11-20T00:51:04.313Z,4.50
2022-11-20T00:56:09.128Z,4.72
2022-11-20T01:01:15.149Z,5.00
2022-11-20T01:06:19.562Z,4.82
2022-11-20T01:11:24.143Z,4.10
2022-11-20T01:16:31.522Z,5.13
2022-11-20T01:21:35.644Z,4.80
2022-11-20T01:26:40.243Z,5.10
2022-11-20T01:31:44.594Z,4.78
2022-11-20T01:36:47.857Z,4.53
2022-11-20T01:42:10.378Z,4.68
2022-11-20T01:47:16.486Z,4.95
2022-11-20T01:52:21.747Z,4.60
2022-11-20T01:57:25.850Z,4.63
2022-11-20T02:02:30.187Z,5.07
2022-11-20T02:07:33.068Z,4.75
2022-11-20T02:12:53.423Z,4.65
2022-11-20T02:17:57.486Z,4.88
2022-11-20T02:23:04.563Z,4.93
2022-11-20T02:28:08.658Z,4.90
2022-11-20T02:33:11.381Z,4.35
2022-11-20T02:38:14.531Z,4.65
2022-11-20T02:43:19.114Z,4.63
2022-11-20T02:48:24.545Z,4.20
2022-11-20T02:53:27.860Z,4.70
2022-11-20T02:58:32.523Z,4.40
2022-11-20T03:03:35.226Z,4.70
2022-11-20T03:08:37.890Z,4.55
2022-11-20T03:13:41.967Z,4.60
2022-11-20T03:18:44.673Z,4.28
2022-11-20T03:23:47.344Z,4.72
2022-11-20T03:28:53.814Z,4.90
2022-11-20T03:33:57.701Z,4.60
2022-11-20T03:39:00.385Z,4.80
2022-11-20T03:44:06.836Z,4.55
2022-11-20T03:49:09.555Z,4.55
2022-11-20T03:54:12.323Z,4.88
2022-11-20T03:59:16.313Z,4.90
2022-11-20T04:04:19.002Z,4.78
2022-11-20T04:09:21.889Z,4.93
2022-11-20T04:14:26.056Z,4.60
2022-11-20T04:19:28.795Z,4.30
2022-11-20T04:24:31.453Z,5.05
2022-11-20T04:29:35.499Z,4.65
2022-11-20T04:34:38.333Z,4.85
2022-11-20T04:39:41.039Z,4.63
2022-11-20T04:44:45.063Z,5.00
2022-11-20T04:49:47.842Z,4.50
2022-11-20T04:54:53.719Z,4.75
2022-11-20T04:59:57.864Z,4.55
2022-11-20T05:05:00.706Z,5.22
2022-11-20T05:10:03.383Z,5.30
2022-11-20T05:15:08.196Z,4.07
2022-11-20T05:20:12.458Z,4.38
2022-11-20T05:25:15.364Z,4.45
2022-11-20T05:30:19.378Z,4.55
2022-11-20T05:35:22.435Z,4.68
2022-11-20T05:40:25.097Z,4.78
2022-11-20T05:45:29.229Z,4.40
2022-11-20T05:50:32.112Z,4.50
2022-11-20T05:55:34.870Z,4.40
2022-11-20T06:00:38.897Z,4.72
2022-11-20T06:05:41.568Z,4.63
2022-11-20T06:10:44.285Z,4.20
2022-11-20T06:15:51.772Z,4.75
2022-11-20T06:21:01.467Z,4.50
2022-11-20T06:26:05.483Z,4.45
2022-11-20T06:31:11.712Z,4.60
2022-11-20T06:36:16.317Z,4.60
2022-11-20T06:41:21.012Z,4.72
2022-11-20T06:46:25.093Z,4.80
2022-11-20T06:51:27.781Z,4.93
2022-11-20T06:56:30.514Z,4.55
2022-11-20T07:01:34.571Z,4.57
2022-11-20T07:06:37.263Z,4.97
2022-11-20T07:11:39.955Z,4.72
2022-11-20T07:16:43.970Z,4.93
2022-11-20T07:21:46.637Z,5.00
2022-11-20T07:26:50.026Z,4.57
2022-11-20T07:31:54.052Z,4.43
2022-11-20T07:36:56.732Z,4.82
2022-11-20T07:41:59.434Z,4.50
2022-11-20T07:47:03.784Z,4.85
2022-11-20T07:52:06.531Z,4.50
2022-11-20T07:57:09.216Z,4.38
2022-11-20T08:02:13.509Z,4.70
2022-11-20T08:07:16.183Z,4.63
2022-11-20T08:12:37.578Z,4.60
2022-11-20T08:17:41.606Z,4.70
2022-11-20T08:22:44.950Z,4.72
2022-11-20T08:27:47.641Z,4.50
2022-11-20T08:32:51.671Z,4.50
2022-11-20T08:37:54.357Z,4.90
2022-11-20T08:42:57.068Z,4.90
2022-11-20T08:48:03.740Z,4.72
2022-11-20T08:53:07.046Z,4.20
2022-11-20T08:58:09.753Z,4.68
2022-11-20T09:03:14.362Z,4.68
2022-11-20T09:08:17.272Z,4.90
2022-11-20T09:13:20.046Z,4.65
2022-11-20T09:18:24.328Z,4.72
2022-11-20T09:23:27.227Z,4.57
2022-11-20T09:28:29.982Z,4.63
2022-11-20T09:33:33.976Z,5.10
2022-11-20T09:38:36.635Z,4.35
2022-11-20T09:43:48.622Z,4.60
2022-11-20T09:49:03.461Z,5.05
2022-11-20T09:54:18.920Z,5.03
2022-11-20T09:59:34.395Z,5.03
2022-11-20T10:04:45.799Z,5.25
2022-11-20T10:09:53.327Z,4.65
2022-11-20T10:15:07.759Z,4.80
2022-11-20T10:20:18.658Z,4.50
2022-11-20T10:25:22.306Z,5.00
2022-11-20T10:30:26.156Z,4.82
2022-11-20T10:35:35.575Z,4.30
2022-11-20T10:40:41.886Z,4.20
2022-11-20T10:45:50.868Z,4.47
2022-11-20T10:51:10.879Z,4.55
2022-11-20T10:56:20.073Z,4.63
2022-11-20T11:01:24.204Z,4.70
2022-11-20T11:06:34.918Z,4.47
2022-11-20T11:11:37.639Z,4.10
2022-11-20T11:16:51.608Z,4.40
2022-11-20T11:21:58.432Z,4.43
2022-11-20T11:27:05.387Z,4.20
2022-11-20T11:32:10.187Z,3.97
2022-11-20T11:37:17.616Z,4.43
2022-11-20T11:42:21.137Z,3.88
2022-11-20T11:47:26.797Z,3.75
2022-11-20T11:52:31.300Z,4.30
2022-11-20T11:57:45.116Z,4.20
2022-11-20T12:02:56.372Z,3.85
2022-11-20T12:08:09.444Z,4.05
2022-11-20T12:13:22.863Z,3.90
2022-11-20T12:18:25.662Z,3.90
2022-11-20T12:23:35.785Z,4.00
2022-11-20T12:28:46.956Z,4.03
2022-11-20T12:33:56.944Z,4.32
2022-11-20T12:39:18.695Z,4.10
2022-11-20T12:44:48.002Z,3.78
2022-11-20T12:49:57.177Z,3.72
2022-11-20T12:55:18.673Z,3.83
2022-11-20T13:00:22.677Z,3.85
2022-11-20T13:05:30.702Z,3.80
2022-11-20T13:10:37.694Z,3.97
2022-11-20T13:15:47.278Z,3.95
2022-11-20T13:20:52.056Z,3.70
2022-11-20T13:26:07.456Z,3.75
2022-11-20T13:31:31.213Z,3.72
2022-11-20T13:36:35.973Z,3.58
2022-11-20T13:41:40.960Z,4.05
2022-11-20T13:46:45.548Z,3.35
2022-11-20T13:51:51.438Z,3.58
2022-11-20T13:57:03.610Z,3.30
2022-11-20T14:02:12.799Z,3.67
2022-11-20T14:07:16.344Z,3.63
2022-11-20T14:12:21.760Z,3.80
2022-11-20T14:17:26.422Z,3.58
2022-11-20T14:22:29.996Z,3.38
2022-11-20T14:27:35.804Z,3.60
2022-11-20T14:32:38.475Z,3.30
2022-11-20T14:37:42.404Z,3.95
2022-11-20T14:42:46.888Z,3.78
2022-11-20T14:47:50.553Z,3.50
2022-11-20T14:52:54.727Z,3.90
2022-11-20T14:58:00.332Z,3.42
2022-11-20T15:03:03.292Z,3.92
2022-11-20T15:08:08.856Z,3.58
2022-11-20T15:13:15.300Z,3.28
2022-11-20T15:18:20.080Z,3.83
2022-11-20T15:23:22.782Z,3.40
2022-11-20T15:28:31.162Z,3.90
2022-11-20T15:33:34.766Z,3.50
2022-11-20T15:38:37.482Z,4.15
2022-11-20T15:43:41.801Z,4.82
2022-11-20T15:48:48.448Z,4.50
2022-11-20T15:53:51.336Z,4.35
2022-11-20T15:58:55.471Z,4.38
2022-11-20T16:03:58.218Z,4.50
2022-11-20T16:09:01.078Z,4.38
2022-11-20T16:14:23.243Z,4.60
2022-11-20T16:19:26.119Z,4.22
2022-11-20T16:24:28.849Z,4.47
2022-11-20T16:29:32.841Z,4.47
2022-11-20T16:34:35.542Z,4.38
2022-11-20T16:39:38.249Z,4.93
2022-11-20T16:44:42.282Z,4.60
2022-11-20T16:49:45.016Z,4.88
2022-11-20T16:54:47.742Z,4.72
2022-11-20T16:59:51.738Z,4.85
2022-11-20T17:04:54.646Z,4.57
2022-11-20T17:09:58.061Z,4.93
2022-11-20T17:15:02.120Z,4.50
2022-11-20T17:20:05.454Z,5.00
2022-11-20T17:25:08.911Z,4.57
2022-11-20T17:30:13.525Z,4.70
2022-11-20T17:35:16.575Z,4.68
2022-11-20T17:40:24.466Z,4.70
2022-11-20T17:45:31.338Z,4.80
2022-11-20T17:50:34.175Z,4.60
2022-11-20T17:55:55.907Z,4.82
2022-11-20T18:01:06.780Z,4.68
2022-11-20T18:06:11.299Z,4.70
2022-11-20T18:11:16.464Z,4.82
2022-11-20T18:16:20.575Z,5.22
2022-11-20T18:21:23.607Z,3.95
2022-11-20T18:26:26.930Z,4.95
2022-11-20T18:31:31.296Z,4.63
2022-11-20T18:36:34.084Z,4.63
2022-11-20T18:41:54.312Z,4.13
2022-11-20T18:46:58.672Z,4.47
2022-11-20T18:52:01.415Z,3.97
2022-11-20T18:57:04.439Z,4.38
2022-11-20T19:02:10.505Z,4.60
2022-11-20T19:07:13.903Z,4.28
2022-11-20T19:12:17.474Z,4.10
2022-11-20T19:17:21.593Z,4.18
2022-11-20T19:22:24.328Z,4.13
2022-11-20T19:27:26.988Z,3.85
2022-11-20T19:32:31.066Z,4.20
2022-11-20T19:37:34.543Z,4.05
2022-11-20T19:42:37.179Z,3.72
2022-11-20T19:53:04.045Z,3.40
2022-11-20T19:58:06.677Z,3.90
2022-11-20T20:03:10.736Z,3.67
2022-11-20T20:08:16.936Z,3.50
2022-11-20T20:13:19.998Z,3.60
2022-11-20T20:18:23.991Z,3.58
2022-11-20T20:23:26.703Z,3.50
2022-11-20T20:28:29.988Z,3.70
2022-11-20T20:33:34.215Z,3.63
2022-11-20T20:38:37.433Z,3.28
2022-11-20T20:43:54.189Z,3.35
2022-11-20T20:48:58.354Z,4.22
2022-11-20T20:54:01.149Z,4.00
2022-11-20T20:59:04.316Z,4.35
2022-11-20T21:04:08.387Z,3.90
2022-11-20T21:09:11.264Z,4.25
2022-11-20T21:14:13.909Z,4.40
2022-11-20T21:19:18.013Z,4.82
2022-11-20T21:24:21.038Z,4.53
2022-11-20T21:29:25.530Z,4.78
2022-11-20T21:34:29.669Z,4.50
2022-11-20T21:39:32.345Z,4.35
2022-11-20T21:44:35.137Z,4.47
2022-11-20T21:49:39.827Z,4.78
2022-11-20T21:54:42.607Z,4.47
2022-11-20T21:59:45.273Z,4.18
2022-11-20T22:04:49.991Z,4.57
2022-11-20T22:09:52.706Z,4.32
2022-11-20T22:14:55.439Z,4.50
2022-11-20T22:19:59.491Z,4.57
2022-11-20T22:25:02.253Z,3.65
2022-11-20T22:30:05.577Z,4.22
2022-11-20T22:35:10.046Z,3.75
2022-11-20T22:40:13.600Z,3.85
2022-11-20T22:45:16.645Z,3.40
2022-11-20T22:50:20.774Z,3.60
2022-11-20T22:55:23.536Z,3.40
2022-11-20T23:00:26.227Z,3.78
2022-11-20T23:05:33.258Z,3.35
2022-11-20T23:10:36.058Z,3.00
2022-11-20T23:15:38.779Z,3.40
2022-11-20T23:20:42.903Z,2.90
2022-11-20T23:25:45.674Z,3.10
2022-11-20T23:30:48.474Z,3.20
2022-11-20T23:35:52.568Z,3.15
2022-11-20T23:40:55.346Z,3.00
2022-11-20T23:45:59.918Z,2.83
2022-11-20T23:51:05.086Z,2.88
2022-11-20T23:56:07.929Z,2.40
